Time;durP1;ratioP1;P1;durP2;ratioP2;P2;SDS_P1;SDS_P2;PMS_P1;PMS_P2;Temp;Humidity;BMP_temperature;BMP_pressure;BME280_temperature;BME280_humidity;BME280_pressure;Samples;Min_cycle;Max_cycle;Signal;HPM_P1;HPM_P2
2021/12/11 00:01:44;;;;;;;;;3.00;1.33;;;;;7.55;61.57;100643.81;4996684;28;45363;-69
2021/12/11 00:04:15;;;;;;;;;2.00;2.00;;;;;7.40;60.85;100631.00;4995461;28;45501;-71
2021/12/11 00:07:02;;;;;;;;;3.33;3.33;;;;;7.49;61.34;100641.69;5012053;28;45337;-72
2021/12/11 00:09:33;;;;;;;;;6.00;4.00;;;;;7.57;61.30;100648.97;5012154;28;45478;-71
2021/12/11 00:12:18;;;;;;;;;4.67;3.00;;;;;7.25;61.24;100609.34;4994972;28;46688;-70
2021/12/11 00:14:49;;;;;;;;;5.00;4.00;;;;;7.53;61.70;100677.50;5015657;28;46225;-73
2021/12/11 00:17:25;;;;;;;;;4.00;3.00;;;;;7.37;61.68;100650.63;5000284;28;45235;-72
2021/12/11 00:19:50;;;;;;;;;7.00;6.00;;;;;7.51;61.73;100675.94;4979159;28;45556;-72
2021/12/11 00:22:20;;;;;;;;;4.00;2.00;;;;;7.42;61.41;100664.31;4980063;28;46000;-71
2021/12/11 00:24:46;;;;;;;;;6.00;4.67;;;;;7.39;61.24;100666.34;4979095;28;45329;-70
2021/12/11 00:27:19;;;;;;;;;9.00;6.33;;;;;7.40;61.67;100681.25;4980409;28;45473;-71
2021/12/11 00:29:45;;;;;;;;;4.00;1.67;;;;;7.42;61.47;100685.50;4978924;28;45381;-72
2021/12/11 00:32:17;;;;;;;;;3.33;2.00;;;;;7.51;61.57;100692.66;4979922;28;46029;-72
2021/12/11 00:34:43;;;;;;;;;4.00;4.00;;;;;6.99;61.33;100604.34;4980133;28;45324;-71
2021/12/11 00:37:13;;;;;;;;;4.00;4.00;;;;;7.38;61.89;100678.75;4978772;28;45378;-70
2021/12/11 00:39:47;;;;;;;;;8.33;5.00;;;;;7.46;61.54;100686.06;4980596;28;45564;-71
2021/12/11 00:42:12;;;;;;;;;3.00;3.00;;;;;7.51;61.33;100710.34;4979864;28;45786;-72
2021/12/11 00:44:42;;;;;;;;;2.00;2.00;;;;;7.34;61.96;100693.19;4979627;28;45491;-70
2021/12/11 00:47:20;;;;;;;;;6.00;4.00;;;;;7.39;61.44;100717.44;4978905;28;45312;-70
2021/12/11 00:49:50;;;;;;;;;5.00;4.00;;;;;7.01;61.77;100649.19;4979034;28;45452;-72
2021/12/11 00:52:16;;;;;;;;;4.67;3.00;;;;;7.44;61.90;100735.63;4978581;28;48514;-71
2021/12/11 00:54:44;;;;;;;;;1.00;1.00;;;;;7.32;62.29;100716.28;4979676;28;45337;-70
2021/12/11 00:57:20;;;;;;;;;7.33;5.00;;;;;7.31;61.77;100719.88;4979907;28;45444;-71
2021/12/11 00:59:56;;;;;;;;;4.33;4.33;;;;;7.00;61.99;100664.16;4979998;28;45480;-70
2021/12/11 01:02:22;;;;;;;;;8.00;4.00;;;;;7.27;61.31;100711.38;4979789;28;45316;-71
2021/12/11 01:04:47;;;;;;;;;6.00;4.67;;;;;7.54;61.31;100747.97;4980036;28;45322;-70
2021/12/11 01:07:20;;;;;;;;;4.00;3.00;;;;;7.33;61.33;100716.16;4991305;28;45523;-71
2021/12/11 01:09:52;;;;;;;;;3.67;2.67;;;;;7.53;60.93;100746.28;4998587;28;45673;-69
2021/12/11 01:12:45;;;;;;;;;11.00;5.67;;;;;7.52;61.26;100744.59;4982255;28;47518;-71
2021/12/11 01:15:49;;;;;;;;;5.33;4.33;;;;;7.55;61.33;100760.22;4979372;28;45505;-70
2021/12/11 01:18:23;;;;;;;;;3.00;3.00;;;;;7.49;60.80;100759.88;4979703;28;45221;-72
2021/12/11 01:21:27;;;;;;;;;4.00;3.00;;;;;7.61;60.91;100783.56;4979753;28;45544;-72
2021/12/11 01:26:36;;;;;;;;;5.33;4.33;;;;;7.54;60.92;100790.28;4978765;28;45245;-73
2021/12/11 01:29:04;;;;;;;;;4.33;4.33;;;;;7.38;61.51;100768.66;4979620;28;45388;-72
2021/12/11 01:31:30;;;;;;;;;5.00;4.67;;;;;7.53;61.59;100804.47;4994893;28;45316;-72
2021/12/11 01:33:56;;;;;;;;;1.33;1.33;;;;;7.39;61.23;100780.94;4977597;28;45398;-70
2021/12/11 01:36:23;;;;;;;;;2.67;2.67;;;;;7.52;61.77;100796.66;4994450;28;46380;-70
2021/12/11 01:38:59;;;;;;;;;3.00;3.00;;;;;7.48;61.61;100804.00;4979420;28;45512;-71
2021/12/11 01:41:27;;;;;;;;;4.00;4.00;;;;;7.52;61.60;100812.53;4979387;28;45411;-71
2021/12/11 01:43:55;;;;;;;;;4.00;2.67;;;;;7.51;61.75;100811.69;4979121;28;46183;-71
2021/12/11 01:46:24;;;;;;;;;3.33;2.00;;;;;7.53;61.27;100820.34;4978972;28;45254;-70
2021/12/11 01:48:56;;;;;;;;;4.00;2.00;;;;;7.53;61.23;100820.34;4994056;28;45511;-71
2021/12/11 01:51:30;;;;;;;;;5.67;4.00;;;;;7.54;61.26;100835.25;4979303;28;45523;-73
2021/12/11 01:54:01;;;;;;;;;3.00;3.00;;;;;7.22;61.24;100784.09;4977989;28;48055;-70
2021/12/11 01:56:29;;;;;;;;;3.33;3.33;;;;;7.52;61.97;100831.91;4977435;28;45333;-71
2021/12/11 01:59:04;;;;;;;;;3.33;3.33;;;;;7.48;61.48;100830.47;4993937;28;45299;-70
2021/12/11 02:01:32;;;;;;;;;2.00;2.00;;;;;7.47;62.00;100831.44;4978789;28;45495;-70
2021/12/11 02:04:03;;;;;;;;;5.00;3.67;;;;;7.21;61.64;100799.13;4978524;28;46135;-72
2021/12/11 02:06:31;;;;;;;;;3.67;2.00;;;;;7.45;61.35;100846.59;4977448;28;45531;-71
2021/12/11 02:08:57;;;;;;;;;3.67;2.00;;;;;7.44;61.71;100847.56;4978901;28;45511;-70
2021/12/11 02:11:26;;;;;;;;;3.67;3.33;;;;;7.41;62.19;100842.50;4999532;28;45510;-70
2021/12/11 02:14:03;;;;;;;;;4.67;3.00;;;;;7.37;62.29;100848.13;4997354;28;48138;-72
2021/12/11 02:16:48;;;;;;;;;3.00;2.33;;;;;7.27;62.06;100840.09;4996764;28;45399;-70
2021/12/11 02:19:22;;;;;;;;;2.67;1.67;;;;;7.30;62.41;100850.44;4998685;28;45346;-70
2021/12/11 02:21:59;;;;;;;;;4.67;2.00;;;;;7.40;62.16;100872.53;4982573;28;45397;-71
2021/12/11 02:24:33;;;;;;;;;2.00;2.00;;;;;7.42;61.90;100873.28;4977088;28;47654;-70
2021/12/11 02:27:00;;;;;;;;;2.00;2.00;;;;;7.38;62.47;100869.16;4978295;28;45159;-72
2021/12/11 02:29:43;;;;;;;;;4.00;3.33;;;;;7.32;61.83;100865.22;4977242;28;45427;-71
2021/12/11 02:32:28;;;;;;;;;3.00;3.00;;;;;7.48;62.06;100887.81;4978402;28;45341;-71
2021/12/11 02:35:07;;;;;;;;;5.33;3.67;;;;;7.35;61.82;100873.88;4978641;28;46282;-70
2021/12/11 02:37:39;;;;;;;;;4.33;2.67;;;;;7.49;61.48;100887.69;4978573;28;45511;-69
2021/12/11 02:40:15;;;;;;;;;5.33;2.33;;;;;7.42;61.73;100875.94;4978822;28;45377;-71
2021/12/11 02:42:55;;;;;;;;;7.67;4.00;;;;;7.43;62.04;100888.19;4989573;28;45582;-71
2021/12/11 02:45:39;;;;;;;;;3.00;1.67;;;;;7.28;62.50;100870.88;4978191;28;45908;-69
2021/12/11 02:48:21;;;;;;;;;5.33;3.00;;;;;7.41;62.01;100889.25;4978145;28;45376;-72
2021/12/11 02:50:54;;;;;;;;;2.67;2.00;;;;;7.13;62.00;100848.25;4977083;28;45409;-71
2021/12/11 02:53:34;;;;;;;;;3.67;2.33;;;;;7.25;62.43;100874.59;4976964;28;45318;-70
2021/12/11 02:56:15;;;;;;;;;2.67;2.67;;;;;7.21;61.77;100867.03;4976504;28;47057;-71
2021/12/11 02:58:44;;;;;;;;;5.00;3.00;;;;;7.42;62.05;100906.84;4978105;28;45732;-71
2021/12/11 03:01:29;;;;;;;;;2.00;2.00;;;;;7.29;61.90;100891.06;4976855;28;45421;-71
2021/12/11 03:04:26;;;;;;;;;6.67;3.67;;;;;7.37;62.17;100916.91;4978305;28;45450;-72
2021/12/11 03:06:55;;;;;;;;;3.00;3.00;;;;;7.33;62.21;100918.94;4978637;28;46444;-70
2021/12/11 03:09:25;;;;;;;;;3.00;2.00;;;;;7.33;62.88;100925.09;4976718;28;46035;-70
2021/12/11 03:11:53;;;;;;;;;3.00;3.00;;;;;7.30;62.63;100938.53;4978141;28;45479;-72
2021/12/11 03:14:21;;;;;;;;;4.00;3.00;;;;;7.27;62.47;100935.31;4976852;28;45331;-69
2021/12/11 03:16:48;;;;;;;;;1.67;1.67;;;;;7.17;62.70;100939.59;4992572;28;47773;-70
2021/12/11 03:19:18;;;;;;;;;5.00;3.67;;;;;7.08;62.89;100919.16;4977611;28;45405;-72
2021/12/11 03:21:45;;;;;;;;;5.67;3.00;;;;;7.10;63.40;100935.75;4992938;28;45275;-70
2021/12/11 03:24:12;;;;;;;;;3.00;3.00;;;;;7.11;62.71;100958.56;4977900;28;45219;-72
2021/12/11 03:26:39;;;;;;;;;4.67;4.67;;;;;6.99;63.07;100936.53;4979222;28;45248;-70
2021/12/11 03:29:07;;;;;;;;;1.33;1.33;;;;;7.10;63.29;100960.38;4978893;28;45313;-71
2021/12/11 03:31:36;;;;;;;;;2.00;1.00;;;;;7.13;63.36;100964.59;4976582;28;45379;-70
2021/12/11 03:34:04;;;;;;;;;5.00;3.00;;;;;7.12;63.35;100970.84;4977820;28;45384;-70
2021/12/11 03:36:32;;;;;;;;;4.67;3.67;;;;;6.99;63.69;100955.88;4977620;28;46071;-72
2021/12/11 03:39:06;;;;;;;;;3.67;1.00;;;;;7.08;63.43;100970.22;4992593;28;45573;-70
2021/12/11 03:41:32;;;;;;;;;3.33;2.00;;;;;7.02;63.53;100962.78;4977851;28;45575;-70
2021/12/11 03:43:58;;;;;;;;;9.00;3.67;;;;;7.05;63.10;100969.63;4977497;28;45318;-71
2021/12/11 03:46:25;;;;;;;;;3.33;2.67;;;;;7.11;63.86;100985.84;4975615;28;46008;-70
2021/12/11 03:48:57;;;;;;;;;5.00;3.00;;;;;7.01;63.72;100977.78;4976645;28;45217;-70
2021/12/11 03:51:28;;;;;;;;;4.00;3.00;;;;;7.12;63.81;100995.47;4977676;28;45355;-72
2021/12/11 03:53:53;;;;;;;;;3.67;3.33;;;;;7.12;63.66;100998.13;4977667;28;45453;-71
2021/12/11 03:56:20;;;;;;;;;4.00;3.00;;;;;6.93;63.42;100980.16;4975839;28;48707;-70
2021/12/11 03:58:50;;;;;;;;;5.00;4.00;;;;;7.08;63.13;101004.59;4977401;28;45397;-69
2021/12/11 04:01:29;;;;;;;;;2.00;2.00;;;;;7.13;63.46;101014.81;4977580;28;45317;-71
2021/12/11 04:03:58;;;;;;;;;1.33;1.33;;;;;7.15;63.26;101016.38;4977620;28;45636;-71
2021/12/11 04:06:24;;;;;;;;;2.00;2.00;;;;;6.99;63.95;100987.63;4976999;28;47471;-72
2021/12/11 04:08:53;;;;;;;;;5.00;2.33;;;;;7.05;62.93;101001.34;4975590;28;46060;-71
2021/12/11 04:11:24;;;;;;;;;3.67;3.00;;;;;7.02;63.79;100994.50;4995020;28;45420;-71
2021/12/11 04:13:53;;;;;;;;;4.00;2.33;;;;;7.07;63.60;101002.91;4975921;28;45421;-70
2021/12/11 04:16:19;;;;;;;;;4.00;4.00;;;;;6.70;64.08;100936.94;4976824;28;46707;-69
2021/12/11 04:18:45;;;;;;;;;3.00;2.33;;;;;7.17;63.34;101018.91;4977361;28;45523;-71
2021/12/11 04:21:13;;;;;;;;;4.67;2.67;;;;;7.09;63.41;101008.09;4977299;28;45475;-71
2021/12/11 04:23:39;;;;;;;;;4.33;3.67;;;;;7.16;63.15;101019.88;4977345;28;45585;-72
2021/12/11 04:26:05;;;;;;;;;3.33;3.00;;;;;7.01;64.14;101004.22;4976878;28;45499;-71
2021/12/11 04:28:34;;;;;;;;;8.00;3.00;;;;;7.03;63.69;101005.91;4991959;28;45502;-70
2021/12/11 04:31:05;;;;;;;;;3.00;1.33;;;;;7.08;63.51;101009.03;4976879;28;45460;-71
2021/12/11 04:33:38;;;;;;;;;3.00;2.00;;;;;7.00;63.56;101017.53;5008768;28;45253;-73
2021/12/11 04:36:12;;;;;;;;;3.00;3.00;;;;;7.00;63.73;101022.81;4977108;28;45812;-69
2021/12/11 04:38:39;;;;;;;;;6.00;3.00;;;;;6.94;63.77;101029.41;4976725;28;45594;-71
2021/12/11 04:41:07;;;;;;;;;3.67;3.67;;;;;6.91;63.90;101040.22;4994769;28;45252;-70
2021/12/11 04:43:34;;;;;;;;;3.67;3.67;;;;;6.65;64.45;100991.09;4977089;28;45557;-70
2021/12/11 04:46:05;;;;;;;;;1.67;1.00;;;;;6.61;63.94;100987.84;4976591;28;46649;-71
2021/12/11 04:49:06;;;;;;;;;3.00;2.00;;;;;6.90;64.00;101035.88;4976518;28;45464;-71
2021/12/11 04:51:44;;;;;;;;;2.33;2.33;;;;;7.08;64.04;101067.22;4976812;28;45562;-70
2021/12/11 04:54:33;;;;;;;;;1.67;1.67;;;;;7.03;63.51;101054.34;4975515;28;45527;-72
2021/12/11 05:00:06;;;;;;;;;4.00;4.00;;;;;6.93;63.94;101059.44;4977814;28;45570;-71
2021/12/11 05:03:08;;;;;;;;;2.00;2.00;;;;;6.62;64.51;101007.19;4978340;28;45402;-71
2021/12/11 05:11:00;;;;;;;;;1.33;1.33;;;;;6.98;63.99;101061.75;4982281;28;45469;-71
2021/12/11 05:13:27;;;;;;;;;3.00;1.00;;;;;6.98;64.27;101057.28;4997728;28;45516;-71
2021/12/11 05:15:58;;;;;;;;;3.00;3.00;;;;;6.89;64.39;101055.34;4997974;28;46006;-69
2021/12/11 05:18:27;;;;;;;;;7.33;3.00;;;;;6.89;64.22;101047.41;4999168;28;46348;-68
2021/12/11 05:21:03;;;;;;;;;10.33;6.00;;;;;6.94;64.22;101058.50;4999275;28;45226;-70
2021/12/11 05:23:30;;;;;;;;;2.67;2.67;;;;;7.04;64.44;101071.03;4999518;28;45228;-71
2021/12/11 05:25:56;;;;;;;;;3.00;3.00;;;;;7.06;64.13;101079.69;4998132;28;45543;-71
2021/12/11 05:28:22;;;;;;;;;1.00;1.00;;;;;6.93;64.30;101059.44;4999185;28;45642;-69
2021/12/11 05:30:51;;;;;;;;;4.33;3.00;;;;;7.00;64.34;101071.25;4998936;28;45559;-71
2021/12/11 05:33:17;;;;;;;;;2.33;2.00;;;;;7.12;63.94;101089.81;4998082;28;45337;-69
2021/12/11 05:35:44;;;;;;;;;2.00;2.00;;;;;7.12;64.34;101101.22;4998511;28;45486;-72
2021/12/11 05:38:12;;;;;;;;;3.00;2.00;;;;;7.14;63.81;101109.06;4998962;28;46626;-72
2021/12/11 05:40:41;;;;;;;;;3.00;2.67;;;;;7.10;63.58;101097.03;4998837;28;45483;-70
2021/12/11 05:43:07;;;;;;;;;5.00;4.00;;;;;7.02;63.58;101094.94;4998508;28;45309;-70
2021/12/11 05:45:33;;;;;;;;;3.00;3.00;;;;;7.04;63.93;101113.34;4997679;28;45365;-70
2021/12/11 05:47:59;;;;;;;;;2.00;2.00;;;;;7.06;63.53;101122.00;4998473;28;45898;-70
2021/12/11 05:50:33;;;;;;;;;4.33;2.00;;;;;7.04;63.96;101121.28;4998679;28;45307;-71
2021/12/11 05:53:00;;;;;;;;;4.33;3.67;;;;;7.03;63.77;101128.34;4997390;28;45578;-71
2021/12/11 05:55:28;;;;;;;;;3.33;3.33;;;;;6.97;63.74;101121.69;5014016;28;45557;-71
2021/12/11 05:57:57;;;;;;;;;5.00;3.00;;;;;6.78;64.30;101102.84;5000317;28;46919;-70
2021/12/11 06:00:30;;;;;;;;;5.00;3.33;;;;;7.06;64.12;101149.28;4994026;28;45554;-71
2021/12/11 06:02:57;;;;;;;;;4.00;2.00;;;;;6.95;64.42;101152.69;4979356;28;45427;-72
2021/12/11 06:05:22;;;;;;;;;1.00;1.00;;;;;6.99;63.89;101164.72;4979644;28;45526;-71
2021/12/11 06:07:48;;;;;;;;;2.00;2.00;;;;;7.03;64.12;101170.66;4978927;28;46346;-71
2021/12/11 06:10:17;;;;;;;;;4.00;3.00;;;;;6.99;64.55;101162.06;4978399;28;45713;-70
2021/12/11 06:12:44;;;;;;;;;3.00;2.00;;;;;7.11;63.45;101183.31;4978992;28;45408;-71
2021/12/11 06:15:10;;;;;;;;;3.67;3.00;;;;;6.91;63.96;101153.88;4994009;28;45456;-71
2021/12/11 06:17:37;;;;;;;;;2.33;2.33;;;;;7.06;64.04;101174.88;4978540;28;45503;-71
2021/12/11 06:20:07;;;;;;;;;6.00;4.33;;;;;6.93;64.08;101175.75;4978804;28;45486;-70
2021/12/11 06:22:34;;;;;;;;;3.33;3.33;;;;;7.05;63.96;101174.03;4978920;28;45285;-71
2021/12/11 06:25:08;;;;;;;;;5.00;2.00;;;;;6.95;64.22;101178.28;4979026;28;45530;-70
2021/12/11 06:27:34;;;;;;;;;3.33;3.00;;;;;6.89;64.54;101179.56;4986788;28;47397;-69
2021/12/11 06:30:00;;;;;;;;;3.00;3.00;;;;;6.59;64.40;101145.59;4997594;28;45373;-70
2021/12/11 06:32:25;;;;;;;;;4.33;3.33;;;;;6.66;64.22;101153.94;4997236;28;45333;-71
2021/12/11 06:34:55;;;;;;;;;4.00;3.00;;;;;6.37;64.52;101119.00;4998410;28;45354;-70
2021/12/11 06:37:21;;;;;;;;;4.33;4.33;;;;;6.78;64.05;101192.69;5012835;28;46345;-70
2021/12/11 06:39:49;;;;;;;;;5.00;4.00;;;;;6.36;64.36;101127.88;4997727;28;45467;-69
2021/12/11 06:42:16;;;;;;;;;10.33;3.67;;;;;6.79;64.08;101204.94;4997054;28;45338;-70
2021/12/11 06:44:42;;;;;;;;;4.00;3.00;;;;;6.72;64.08;101206.34;4997875;28;45520;-68
2021/12/11 06:47:10;;;;;;;;;2.00;2.00;;;;;6.78;65.02;101221.75;4996436;28;49186;-70
2021/12/11 06:49:37;;;;;;;;;3.00;3.00;;;;;6.76;64.88;101226.31;4997621;28;45503;-71
2021/12/11 06:52:07;;;;;;;;;4.00;4.00;;;;;5.62;64.21;101041.53;4998126;28;45443;-71
2021/12/11 06:54:33;;;;;;;;;6.00;6.00;;;;;6.76;64.18;101236.03;4996804;28;45579;-71
2021/12/11 06:57:00;;;;;;;;;4.33;3.67;;;;;6.50;64.50;101204.34;4991746;28;46468;-71
2021/12/11 06:59:26;;;;;;;;;6.00;4.67;;;;;6.70;64.62;101240.81;4976679;28;45461;-71
2021/12/11 07:01:52;;;;;;;;;5.33;3.33;;;;;6.78;64.65;101256.09;4993182;28;45528;-70
2021/12/11 07:04:17;;;;;;;;;5.33;4.67;;;;;6.76;63.97;101258.03;4978421;28;45607;-72
2021/12/11 07:06:47;;;;;;;;;6.67;4.33;;;;;6.75;64.75;101264.25;4976857;28;47377;-71
2021/12/11 07:09:14;;;;;;;;;6.00;4.00;;;;;6.60;64.31;101244.19;4978032;28;45277;-69
2021/12/11 07:11:42;;;;;;;;;6.00;5.00;;;;;6.36;64.53;101205.31;4977453;28;45432;-71
2021/12/11 07:14:09;;;;;;;;;7.00;7.00;;;;;6.64;64.61;101270.31;4978743;28;45586;-72
2021/12/11 07:16:36;;;;;;;;;8.33;5.00;;;;;6.73;64.68;101279.38;4982706;28;46347;-72
2021/12/11 07:19:05;;;;;;;;;4.00;3.00;;;;;6.52;64.08;101257.91;4977799;28;45244;-71
2021/12/11 07:21:32;;;;;;;;;8.00;6.00;;;;;6.74;65.28;101296.91;4977793;28;45349;-71
2021/12/11 07:23:58;;;;;;;;;5.00;5.00;;;;;6.76;64.17;101300.28;4992355;28;45548;-70
2021/12/11 07:26:31;;;;;;;;;3.00;3.00;;;;;6.66;64.63;101300.09;4992575;28;47756;-71
2021/12/11 07:29:04;;;;;;;;;6.33;4.00;;;;;6.66;64.91;101286.03;4992639;28;45420;-72
2021/12/11 07:31:30;;;;;;;;;6.33;4.00;;;;;6.69;65.25;101294.59;4978120;28;45361;-71
2021/12/11 07:33:56;;;;;;;;;5.33;3.00;;;;;6.69;64.91;101301.69;4978174;28;45360;-73
2021/12/11 07:36:23;;;;;;;;;1.00;1.00;;;;;6.63;64.80;101280.97;4977902;28;45564;-74
2021/12/11 07:38:49;;;;;;;;;4.00;4.00;;;;;6.71;65.01;101292.69;4981893;28;46438;-72
2021/12/11 07:41:16;;;;;;;;;3.33;3.33;;;;;6.63;64.68;101289.75;4996934;28;45589;-73
2021/12/11 07:43:44;;;;;;;;;10.00;9.00;;;;;6.81;65.13;101316.72;4996327;28;45498;-70
2021/12/11 07:46:13;;;;;;;;;5.00;4.00;;;;;6.76;64.55;101316.16;4994870;28;45660;-67
2021/12/11 07:48:40;;;;;;;;;4.00;4.00;;;;;6.73;65.21;101316.38;4994404;28;45561;-69
2021/12/11 07:51:07;;;;;;;;;7.67;3.00;;;;;6.84;64.44;101329.69;4993108;28;45441;-70
2021/12/11 07:53:33;;;;;;;;;5.00;4.00;;;;;6.72;64.55;101312.88;4994660;28;45527;-70
2021/12/11 07:55:59;;;;;;;;;9.00;5.00;;;;;6.95;64.28;101344.81;4993348;28;46122;-71
2021/12/11 07:58:25;;;;;;;;;3.33;3.33;;;;;6.98;64.32;101352.53;4994953;28;45537;-68
2021/12/11 08:00:53;;;;;;;;;5.00;4.00;;;;;6.96;64.18;101355.28;4996211;28;45512;-76
2021/12/11 08:03:19;;;;;;;;;8.33;5.00;;;;;6.59;64.39;101279.47;4997353;28;45214;-73
2021/12/11 08:05:47;;;;;;;;;10.67;6.33;;;;;6.94;64.23;101333.38;4996491;28;45570;-71
2021/12/11 08:08:13;;;;;;;;;6.67;5.00;;;;;6.90;64.23;101333.72;4994909;28;46383;-72
2021/12/11 08:10:42;;;;;;;;;9.33;8.00;;;;;6.99;64.37;101357.69;4976322;28;45419;-72
2021/12/11 08:13:09;;;;;;;;;8.00;6.00;;;;;7.12;64.24;101378.00;4976101;28;45319;-73
2021/12/11 08:15:35;;;;;;;;;10.00;10.00;;;;;7.15;63.83;101369.88;4996356;28;45705;-72
2021/12/11 08:18:03;;;;;;;;;12.67;9.67;;;;;7.25;63.95;101384.16;4994723;28;45372;-71
2021/12/11 08:20:31;;;;;;;;;8.00;6.33;;;;;7.17;63.36;101370.59;4990988;28;46871;-69
2021/12/11 08:22:58;;;;;;;;;7.33;4.67;;;;;7.24;63.60;101395.69;4996131;28;45404;-69
2021/12/11 08:25:26;;;;;;;;;8.67;7.00;;;;;7.15;63.46;101372.50;4996318;28;46329;-70
2021/12/11 08:27:53;;;;;;;;;9.00;4.00;;;;;7.19;63.32;101377.47;4994291;28;45355;-71
2021/12/11 08:30:20;;;;;;;;;13.33;11.67;;;;;7.30;63.04;101389.97;4996885;28;45238;-69
2021/12/11 08:32:46;;;;;;;;;8.00;6.67;;;;;7.05;63.62;101345.88;4994960;28;45338;-70
2021/12/11 08:35:13;;;;;;;;;7.33;5.00;;;;;7.41;63.35;101402.41;4998689;28;45492;-70
2021/12/11 08:37:43;;;;;;;;;11.33;9.67;;;;;7.51;63.64;101409.63;4999364;28;45567;-72
2021/12/11 08:40:14;;;;;;;;;12.00;11.67;;;;;7.61;62.95;101402.75;4999507;28;45416;-70
2021/12/11 08:42:40;;;;;;;;;6.67;4.67;;;;;7.66;63.23;101393.63;4999346;28;45528;-69
2021/12/11 08:45:10;;;;;;;;;12.33;7.00;;;;;7.88;62.70;101407.00;4999121;28;46038;-72
2021/12/11 08:47:39;;;;;;;;;10.33;8.67;;;;;8.03;62.29;101392.66;4999357;28;45400;-72
2021/12/11 08:50:08;;;;;;;;;9.67;5.00;;;;;8.18;61.85;101412.72;4999439;28;45539;-71
2021/12/11 08:52:37;;;;;;;;;10.00;6.00;;;;;8.07;61.58;101364.16;4999469;28;45337;-69
2021/12/11 08:55:07;;;;;;;;;7.67;6.67;;;;;8.47;60.92;101404.47;4999498;28;46540;-71
2021/12/11 08:57:38;;;;;;;;;6.33;5.00;;;;;8.51;60.53;101393.50;4997893;28;45566;-70
2021/12/11 09:00:33;;;;;;;;;10.00;6.00;;;;;8.38;60.44;101352.13;4999498;28;45483;-70
2021/12/11 09:03:18;;;;;;;;;7.33;6.00;;;;;9.08;59.63;101421.03;4998820;28;45698;-68
2021/12/11 09:05:55;;;;;;;;;9.33;7.00;;;;;9.31;59.19;101425.41;4995447;28;47863;-68
2021/12/11 09:08:32;;;;;;;;;7.33;4.33;;;;;9.37;58.40;101406.34;4979301;28;45334;-70
2021/12/11 09:11:09;;;;;;;;;6.33;5.67;;;;;9.58;58.54;101422.38;4991179;28;45718;-72
2021/12/11 09:13:40;;;;;;;;;6.67;6.33;;;;;9.60;58.09;101401.03;4998510;28;45457;-71
2021/12/11 09:16:21;;;;;;;;;8.33;5.67;;;;;9.91;57.38;101432.16;4997410;28;46302;-71
2021/12/11 09:18:55;;;;;;;;;6.67;6.67;;;;;10.06;57.00;101444.22;4996419;28;45477;-70
2021/12/11 09:21:31;;;;;;;;;5.33;5.33;;;;;10.15;56.60;101441.75;4997090;28;45450;-69
2021/12/11 09:24:08;;;;;;;;;3.33;3.33;;;;;10.27;55.76;101454.09;4995152;28;45469;-69
2021/12/11 09:26:39;;;;;;;;;5.67;5.00;;;;;10.17;56.13;101421.22;4993970;28;46628;-71
2021/12/11 09:29:27;;;;;;;;;11.67;7.33;;;;;10.34;55.85;101447.31;4989655;28;45686;-67
2021/12/11 09:31:52;;;;;;;;;14.67;12.67;;;;;10.49;55.07;101467.31;4996869;28;45586;-71
2021/12/11 09:34:22;;;;;;;;;6.67;4.00;;;;;10.00;54.97;101398.69;4996102;28;45559;-69
2021/12/11 09:36:54;;;;;;;;;4.00;4.00;;;;;10.44;54.75;101484.63;4990304;28;45963;-69
2021/12/11 09:39:24;;;;;;;;;5.67;4.00;;;;;10.03;54.68;101423.22;4978710;28;45222;-70
2021/12/11 09:41:49;;;;;;;;;2.33;2.33;;;;;10.36;54.84;101493.22;4994444;28;45598;-70
2021/12/11 09:44:29;;;;;;;;;6.00;5.00;;;;;9.89;54.44;101423.47;4993842;28;45658;-70
2021/12/11 09:47:01;;;;;;;;;10.33;8.00;;;;;9.73;54.94;101409.72;5000893;28;47338;-70
2021/12/11 09:49:34;;;;;;;;;5.00;4.67;;;;;10.15;55.00;101481.63;4997974;28;45404;-72
2021/12/11 09:52:15;;;;;;;;;8.00;6.00;;;;;9.89;54.77;101439.41;4989123;28;45702;-72
2021/12/11 09:54:43;;;;;;;;;10.33;7.33;;;;;10.25;55.09;101499.41;4994711;28;45588;-72
2021/12/11 09:57:14;;;;;;;;;6.00;5.00;;;;;10.15;55.28;101492.25;4992351;28;47895;-72
2021/12/11 09:59:40;;;;;;;;;6.33;5.00;;;;;9.96;55.17;101475.13;4988997;28;45678;-68
2021/12/11 10:02:10;;;;;;;;;4.00;4.00;;;;;10.04;55.23;101509.91;4978484;28;45424;-70
2021/12/11 10:04:46;;;;;;;;;8.00;8.00;;;;;9.96;54.90;101501.69;4978255;28;45575;-71
2021/12/11 10:07:31;;;;;;;;;7.00;6.00;;;;;9.60;55.26;101454.13;4976245;28;47493;-68
2021/12/11 10:10:12;;;;;;;;;8.00;7.00;;;;;9.93;55.24;101504.59;4977754;28;45419;-69
2021/12/11 10:12:43;;;;;;;;;11.33;8.67;;;;;10.09;55.22;101524.63;4978111;28;45444;-69
2021/12/11 10:15:21;;;;;;;;;7.33;6.00;;;;;10.16;55.23;101524.00;4979225;28;45525;-68
2021/12/11 10:17:57;;;;;;;;;7.00;7.00;;;;;10.20;55.15;101527.25;4977708;28;45644;-72
2021/12/11 10:20:35;;;;;;;;;11.33;8.33;;;;;10.20;55.32;101522.78;4977672;28;45362;-71
2021/12/11 10:23:04;;;;;;;;;7.00;7.00;;;;;10.23;55.06;101521.75;4978355;28;45494;-68
2021/12/11 10:25:34;;;;;;;;;5.00;5.00;;;;;10.10;54.78;101521.84;4976630;28;45327;-66
2021/12/11 10:28:04;;;;;;;;;10.00;5.67;;;;;10.01;54.98;101523.44;4994606;28;48035;-70
2021/12/11 10:30:33;;;;;;;;;7.33;6.00;;;;;10.01;55.50;101525.22;4985770;28;45607;-68
2021/12/11 10:32:59;;;;;;;;;6.67;5.00;;;;;9.99;55.36;101508.56;4996138;28;45300;-71
2021/12/11 10:35:29;;;;;;;;;8.67;8.00;;;;;10.10;55.10;101505.91;4997803;28;45616;-71
2021/12/11 10:37:55;;;;;;;;;13.67;13.67;;;;;10.09;55.36;101504.22;4991677;28;45522;-70
2021/12/11 10:40:37;;;;;;;;;9.67;8.00;;;;;10.01;55.07;101491.56;4978718;28;45239;-69
2021/12/11 10:43:22;;;;;;;;;9.00;7.00;;;;;10.27;55.13;101531.19;4977737;28;45525;-71
2021/12/11 10:45:49;;;;;;;;;6.00;6.00;;;;;10.15;54.97;101509.03;4992856;28;45564;-70
2021/12/11 10:48:30;;;;;;;;;7.00;6.67;;;;;10.17;55.03;101516.88;4996772;28;45543;-70
2021/12/11 10:51:10;;;;;;;;;9.33;7.33;;;;;9.82;54.92;101458.63;4992543;28;45590;-69
2021/12/11 10:53:38;;;;;;;;;10.67;8.00;;;;;9.80;54.74;101474.63;4985513;28;45381;-72
2021/12/11 10:56:06;;;;;;;;;6.33;5.33;;;;;9.75;55.40;101479.47;4996441;28;45581;-71
2021/12/11 10:58:39;;;;;;;;;7.33;7.33;;;;;9.87;55.41;101506.88;4995902;28;47089;-73
2021/12/11 11:01:09;;;;;;;;;10.33;6.00;;;;;9.88;55.75;101528.00;4990612;28;45601;-70
2021/12/11 11:03:38;;;;;;;;;12.67;8.00;;;;;9.86;55.89;101521.97;4994513;28;45263;-70
2021/12/11 11:06:05;;;;;;;;;8.00;7.00;;;;;9.92;55.97;101529.47;4995232;28;45530;-70
2021/12/11 11:08:31;;;;;;;;;11.00;9.00;;;;;9.53;55.82;101463.53;4996323;28;46562;-71
2021/12/11 11:11:03;;;;;;;;;9.33;8.00;;;;;9.93;56.40;101536.47;4994874;28;45477;-71
2021/12/11 11:13:28;;;;;;;;;5.67;5.67;;;;;9.96;56.23;101541.53;4995723;28;45443;-70
2021/12/11 11:15:57;;;;;;;;;7.33;5.33;;;;;9.75;56.93;101512.19;4996384;28;45308;-71
2021/12/11 11:18:25;;;;;;;;;7.67;6.00;;;;;9.69;56.39;101493.25;4993048;28;45924;-71
2021/12/11 11:20:56;;;;;;;;;8.00;6.33;;;;;10.09;56.00;101545.88;4989696;28;45498;-71
2021/12/11 11:23:23;;;;;;;;;5.33;5.00;;;;;10.06;56.09;101526.56;4996977;28;45434;-70
2021/12/11 11:25:51;;;;;;;;;10.00;8.67;;;;;10.25;55.96;101541.09;5011645;28;45586;-68
2021/12/11 11:28:21;;;;;;;;;9.33;7.00;;;;;10.18;55.67;101526.53;4994859;28;47824;-71
2021/12/11 11:30:54;;;;;;;;;8.33;7.33;;;;;10.27;55.60;101528.50;4996158;28;45396;-72
2021/12/11 11:33:21;;;;;;;;;10.00;8.00;;;;;10.36;55.61;101531.25;4992379;28;45680;-71
2021/12/11 11:35:48;;;;;;;;;10.33;9.00;;;;;10.40;55.32;101529.19;4996729;28;45559;-70
2021/12/11 11:38:21;;;;;;;;;9.00;9.00;;;;;10.45;55.39;101536.84;4995045;28;47963;-71
2021/12/11 11:40:50;;;;;;;;;14.00;12.67;;;;;10.38;55.44;101527.63;4994481;28;45446;-72
2021/12/11 11:43:17;;;;;;;;;8.67;6.00;;;;;10.51;55.43;101547.81;4993074;28;45684;-70
2021/12/11 11:45:43;;;;;;;;;9.00;6.00;;;;;10.35;54.91;101512.78;4994262;28;45540;-69
2021/12/11 11:48:10;;;;;;;;;5.67;5.67;;;;;10.44;54.92;101551.94;5011225;28;47501;-68
2021/12/11 11:50:40;;;;;;;;;5.33;5.33;;;;;10.42;55.13;101548.56;4996278;28;45445;-70
2021/12/11 11:53:06;;;;;;;;;6.00;4.67;;;;;10.51;55.18;101554.94;4995698;28;45245;-70
2021/12/11 11:55:38;;;;;;;;;8.67;6.00;;;;;10.42;55.28;101531.75;4996864;28;45414;-68
2021/12/11 11:58:05;;;;;;;;;10.33;10.33;;;;;10.05;54.56;101477.06;4996571;28;45720;-68
2021/12/11 12:00:42;;;;;;;;;5.67;5.33;;;;;10.44;55.53;101554.59;4996313;28;45284;-67